Wilson Lista — 8PRW — position and weather

sailwx.info

Track history (hours):
 
Tides and Currents Weather Stations Pressure Air Temp Water Temp Dewpoint Dewpoint Depression Visibility Wind Speed Wind Dir Waves Ship Positions

Wilson Lista

Last reported at 2017-Jan-16 18:14 UTC. Time now 2017-Jan-16 19:28 UTC.
Position N 51°15' E 004°14'.

Length 88 m; draft 5.1 m.

Type: Cargo ship. MMSI: 314188000.

Date/timePositionNaut miles runAvg speedWind from/ knotsBaromVisibWave heightAir tempDewpointWater temp
2017-Jan-16 18:14N 51°15' E 004°14'0 0.0
2017-Jan-16 17:32N 51°15' E 004°14'0 0.0
2017-Jan-16 16:19N 51°15' E 004°14'0 0.0
2017-Jan-16 15:22N 51°15' E 004°14'0 0.0
2017-Jan-16 14:30N 51°15' E 004°14'0 0.0
2017-Jan-16 13:27N 51°15' E 004°14'0 0.0
2017-Jan-16 12:29N 51°15' E 004°14'0 0.0
2017-Jan-16 11:32N 51°15' E 004°14'0 0.0
2017-Jan-16 10:32N 51°15' E 004°14'0 0.0
2017-Jan-16 09:28N 51°15' E 004°14'0 0.0
2017-Jan-16 08:28N 51°15' E 004°14'0 0.0
2017-Jan-16 07:27N 51°15' E 004°14'0 0.0
2017-Jan-16 06:33N 51°15' E 004°14'0 0.0
2017-Jan-16 05:32N 51°15' E 004°14'0 0.0
2017-Jan-16 04:29N 51°15' E 004°14'0 0.0
2017-Jan-16 03:32N 51°15' E 004°14'0 0.0
2017-Jan-16 02:31N 51°15' E 004°14'0 0.0
2017-Jan-16 01:31N 51°15' E 004°14'0 0.0
2017-Jan-16 00:33N 51°15' E 004°14'0 0.0
2017-Jan-15 23:33N 51°15' E 004°14'0 0.0
2017-Jan-15 22:32N 51°15' E 004°14'0 0.0
2017-Jan-15 21:32N 51°15' E 004°14'0 0.0
2017-Jan-15 20:29N 51°15' E 004°14'0 0.0
2017-Jan-15 19:31N 51°15' E 004°14'0 0.0
2017-Jan-15 18:30N 51°15' E 004°14'0 0.0
2017-Jan-15 17:30N 51°15' E 004°14'0 0.0
2017-Jan-15 16:33N 51°15' E 004°14'0 0.2
2017-Jan-15 15:33N 51°16' E 004°14'2 1.8
2017-Jan-15 14:33N 51°16' E 004°17'7 7.3
2017-Jan-15 13:33N 51°23' E 004°13'9 8.6
2017-Jan-15 12:33N 51°26' E 004°00'10 9.8
2017-Jan-15 11:33N 51°21' E 003°46'9 9.5
2017-Jan-15 10:33N 51°27' E 003°34'1110.9
2017-Jan-15 09:33N 51°35' E 003°23'8 8.3
2017-Jan-15 08:32N 51°42' E 003°16'  
2017-Jan-10 11:30N 63°11' E 007°12'7 7.6
2017-Jan-10 10:32N 63°14' E 007°26'8 8.3
2017-Jan-10 09:33N 63°14' E 007°44'8 8.5
2017-Jan-10 08:33N 63°15' E 008°03'30 9.8
2017-Jan-10 05:33N 63°29' E 009°01'12 9.7
2017-Jan-10 04:15N 63°35' E 009°26'910.7
2017-Jan-10 03:28N 63°39' E 009°42'9 9.9
2017-Jan-10 02:33N 63°32' E 009°53'10 9.6
2017-Jan-10 01:33N 63°28' E 010°13'9 9.1
2017-Jan-10 00:33N 63°32' E 010°31'1010.4
2017-Jan-09 23:33N 63°40' E 010°47'1110.8
2017-Jan-09 22:30N 63°49' E 011°03'  
Track history (hours):
 
Tides and Currents Weather Stations Pressure Air Temp Water Temp Dewpoint Dewpoint Depression Visibility Wind Speed Wind Dir Waves Ship Positions

Wilson Lista

Last reported at 2017-Jan-16 18:14 UTC. Time now 2017-Jan-16 19:28 UTC.
Position N 51°15' E 004°14'.

Length 88 m; draft 5.1 m.

Type: Cargo ship. MMSI: 314188000.

Date/timePositionNaut miles runAvg speedWind from/ knotsBaromVisibWave heightAir tempDewpointWater temp
2017-Jan-16 18:14N 51°15' E 004°14'0 0.0
2017-Jan-16 17:32N 51°15' E 004°14'0 0.0
2017-Jan-16 16:19N 51°15' E 004°14'0 0.0
2017-Jan-16 15:22N 51°15' E 004°14'0 0.0
2017-Jan-16 14:30N 51°15' E 004°14'0 0.0
2017-Jan-16 13:27N 51°15' E 004°14'0 0.0
2017-Jan-16 12:29N 51°15' E 004°14'0 0.0
2017-Jan-16 11:32N 51°15' E 004°14'0 0.0
2017-Jan-16 10:32N 51°15' E 004°14'0 0.0
2017-Jan-16 09:28N 51°15' E 004°14'0 0.0
2017-Jan-16 08:28N 51°15' E 004°14'0 0.0
2017-Jan-16 07:27N 51°15' E 004°14'0 0.0
2017-Jan-16 06:33N 51°15' E 004°14'0 0.0
2017-Jan-16 05:32N 51°15' E 004°14'0 0.0
2017-Jan-16 04:29N 51°15' E 004°14'0 0.0
2017-Jan-16 03:32N 51°15' E 004°14'0 0.0
2017-Jan-16 02:31N 51°15' E 004°14'0 0.0
2017-Jan-16 01:31N 51°15' E 004°14'0 0.0
2017-Jan-16 00:33N 51°15' E 004°14'0 0.0
2017-Jan-15 23:33N 51°15' E 004°14'0 0.0
2017-Jan-15 22:32N 51°15' E 004°14'0 0.0
2017-Jan-15 21:32N 51°15' E 004°14'0 0.0
2017-Jan-15 20:29N 51°15' E 004°14'0 0.0
2017-Jan-15 19:31N 51°15' E 004°14'0 0.0
2017-Jan-15 18:30N 51°15' E 004°14'0 0.0
2017-Jan-15 17:30N 51°15' E 004°14'0 0.0
2017-Jan-15 16:33N 51°15' E 004°14'0 0.2
2017-Jan-15 15:33N 51°16' E 004°14'2 1.8
2017-Jan-15 14:33N 51°16' E 004°17'7 7.3
2017-Jan-15 13:33N 51°23' E 004°13'9 8.6
2017-Jan-15 12:33N 51°26' E 004°00'10 9.8
2017-Jan-15 11:33N 51°21' E 003°46'9 9.5
2017-Jan-15 10:33N 51°27' E 003°34'1110.9
2017-Jan-15 09:33N 51°35' E 003°23'8 8.3
2017-Jan-15 08:32N 51°42' E 003°16'  
2017-Jan-10 11:30N 63°11' E 007°12'7 7.6
2017-Jan-10 10:32N 63°14' E 007°26'8 8.3
2017-Jan-10 09:33N 63°14' E 007°44'8 8.5
2017-Jan-10 08:33N 63°15' E 008°03'30 9.8
2017-Jan-10 05:33N 63°29' E 009°01'12 9.7
2017-Jan-10 04:15N 63°35' E 009°26'910.7
2017-Jan-10 03:28N 63°39' E 009°42'9 9.9
2017-Jan-10 02:33N 63°32' E 009°53'10 9.6
2017-Jan-10 01:33N 63°28' E 010°13'9 9.1
2017-Jan-10 00:33N 63°32' E 010°31'1010.4
2017-Jan-09 23:33N 63°40' E 010°47'1110.8
2017-Jan-09 22:30N 63°49' E 011°03'  

Dump ship's entire track history